首页
METAR-TAF:

METAR-TAF

机场 :

民都鲁, 马来西亚

纬度: 03-12N, 经度: 113-02E, 海拔: 2米

当前天气观测

该预报发布于32分钟前的06:00 UTC
风速5节,风向西北,在西转西南之间变化
温度 33°C
湿度 71%
气压 1007 hPa
能见度10公里或以上
散云层高于1600英尺

METAR: WBGB 220600Z 31005KT 250V010 9999 SCT016 33/27 Q1007

时间: 14:32 (06:32 UTC)

预报

该预报发布于1小时和32分钟前的05:00 UTC
预报有效从22日的 06点(UTC)到 23日的 06点(UTC)
风速3节,风向多变
能见度10公里或以上
少量云层高于1600英尺

TAF: WBGB 220500Z 2206/2306 VRB03KT 9999 FEW016

超过4000个机场的气象观测和天气预报(METAR&TAF报告)。

可查询的气象台以黄色和红色小点在地图上表示。

将鼠标移到小点上方,可查看气象台名称。

然后点击查看天气观测和预报。

如需切换地图:点击带黑十字的绿色按钮放大地图;点击带横线的绿色按钮缩小地图;或者点击绿色箭头查看邻近地区的地图。


METAR-TAF: